Time;durP1;ratioP1;P1;durP2;ratioP2;P2;SDS_P1;SDS_P2;PMS_P1;PMS_P2;Temp;Humidity;BMP_temperature;BMP_pressure;BME280_temperature;BME280_humidity;BME280_pressure;Samples;Min_cycle;Max_cycle;Signal;HPM_P1;HPM_P2
2024/03/09 00:01:37;;;;;;;22.92;14.02;;;4.10;92.60;;;;;;4991801;28;20513;-70
2024/03/09 00:04:04;;;;;;;24.90;15.30;;;4.10;92.70;;;;;;4977047;28;20448;-70
2024/03/09 00:06:33;;;;;;;21.35;12.65;;;4.10;92.70;;;;;;4975802;28;20047;-70
2024/03/09 00:09:00;;;;;;;16.13;11.43;;;4.00;92.80;;;;;;4976937;28;20038;-71
2024/03/09 00:11:27;;;;;;;19.42;13.07;;;4.00;92.80;;;;;;4992078;28;20097;-70
2024/03/09 00:13:55;;;;;;;16.98;14.10;;;4.00;92.90;;;;;;4976639;28;20401;-70
2024/03/09 00:16:23;;;;;;;19.58;12.10;;;4.00;92.90;;;;;;4991785;28;20047;-70
2024/03/09 00:18:50;;;;;;;17.02;11.73;;;4.00;92.80;;;;;;4991511;28;20043;-70
2024/03/09 00:21:17;;;;;;;25.08;14.07;;;3.90;92.80;;;;;;4991848;28;20046;-70
2024/03/09 00:23:48;;;;;;;21.55;13.32;;;3.90;92.80;;;;;;4975314;28;20055;-70
2024/03/09 00:26:15;;;;;;;22.67;13.63;;;3.90;93.20;;;;;;4976148;28;20042;-70
2024/03/09 00:28:42;;;;;;;16.48;9.82;;;3.90;92.90;;;;;;4975490;28;20050;-70
2024/03/09 00:31:10;;;;;;;24.20;15.23;;;3.80;93.00;;;;;;4975477;28;20130;-70
2024/03/09 00:33:38;;;;;;;24.25;13.75;;;3.80;93.10;;;;;;4976316;28;20503;-70
2024/03/09 00:36:06;;;;;;;19.23;12.25;;;3.80;93.10;;;;;;4975682;28;20053;-70
2024/03/09 00:38:34;;;;;;;20.40;12.02;;;3.70;93.20;;;;;;4991326;28;20046;-70
2024/03/09 00:41:01;;;;;;;20.40;13.43;;;3.70;93.20;;;;;;4991406;28;20055;-70
2024/03/09 00:43:29;;;;;;;17.92;11.00;;;3.70;93.10;;;;;;4976379;28;20047;-70
2024/03/09 00:45:56;;;;;;;24.60;12.93;;;3.70;93.20;;;;;;4976070;28;20050;-70
2024/03/09 00:48:23;;;;;;;18.40;11.68;;;3.60;93.20;;;;;;4991208;28;20078;-70
2024/03/09 00:50:53;;;;;;;20.42;9.48;;;3.60;93.40;;;;;;4975899;28;20047;-70
2024/03/09 00:53:22;;;;;;;20.95;12.35;;;3.60;93.40;;;;;;4975383;28;20046;-70
2024/03/09 00:55:49;;;;;;;17.75;12.50;;;3.60;93.30;;;;;;4975911;28;20049;-69
2024/03/09 00:58:18;;;;;;;22.88;12.45;;;3.60;93.50;;;;;;4990576;28;20134;-70
2024/03/09 01:00:47;;;;;;;21.70;12.95;;;3.60;93.50;;;;;;4975850;28;20047;-70
2024/03/09 01:03:14;;;;;;;21.95;12.15;;;3.50;93.50;;;;;;4990905;28;20500;-70
2024/03/09 01:05:44;;;;;;;25.73;14.93;;;3.50;93.70;;;;;;4976018;28;20046;-70
2024/03/09 01:08:13;;;;;;;16.00;11.80;;;3.60;93.70;;;;;;4975161;28;20093;-70
2024/03/09 01:10:42;;;;;;;22.05;13.18;;;3.50;93.70;;;;;;4975138;28;20061;-70
2024/03/09 01:13:10;;;;;;;21.38;14.63;;;3.50;93.60;;;;;;4975848;28;20445;-70
2024/03/09 01:15:37;;;;;;;23.67;13.85;;;3.50;93.60;;;;;;4990529;28;20141;-70
2024/03/09 01:18:05;;;;;;;25.13;14.20;;;3.50;93.70;;;;;;4974288;28;20039;-70
2024/03/09 01:20:32;;;;;;;21.38;13.18;;;3.50;93.60;;;;;;4990599;28;20484;-70
2024/03/09 01:22:59;;;;;;;22.50;12.55;;;3.60;93.70;;;;;;4990560;28;20047;-69
2024/03/09 01:25:26;;;;;;;23.67;14.63;;;3.60;93.80;;;;;;4990476;28;20054;-70
2024/03/09 01:27:53;;;;;;;21.45;14.35;;;3.50;93.70;;;;;;4974329;28;20150;-70
2024/03/09 01:30:20;;;;;;;17.45;10.57;;;3.50;93.90;;;;;;4990818;28;20066;-70
2024/03/09 01:32:49;;;;;;;19.75;14.75;;;3.50;93.90;;;;;;4973988;28;20254;-70
2024/03/09 01:35:17;;;;;;;21.60;11.65;;;3.50;93.90;;;;;;4975397;28;20039;-70
2024/03/09 01:37:44;;;;;;;20.08;13.50;;;3.40;94.00;;;;;;4990062;28;20404;-70
2024/03/09 01:40:11;;;;;;;20.35;13.40;;;3.40;93.90;;;;;;4990304;28;20043;-70
2024/03/09 01:42:39;;;;;;;18.65;13.77;;;3.40;94.00;;;;;;4989947;28;20424;-69
2024/03/09 01:45:07;;;;;;;21.45;11.50;;;3.40;94.10;;;;;;4989913;28;20079;-69
2024/03/09 01:47:35;;;;;;;19.00;10.63;;;3.40;94.10;;;;;;4974140;28;20047;-70
2024/03/09 01:50:02;;;;;;;21.48;14.70;;;3.40;94.10;;;;;;4989801;28;20493;-70
2024/03/09 01:52:31;;;;;;;19.00;10.55;;;3.50;94.20;;;;;;4975290;28;20138;-70
2024/03/09 01:55:02;;;;;;;26.75;13.38;;;3.50;94.20;;;;;;4989620;28;20039;-70
2024/03/09 01:57:30;;;;;;;19.95;12.38;;;3.40;94.10;;;;;;4989897;28;20046;-70
2024/03/09 01:59:57;;;;;;;21.80;13.23;;;3.40;94.20;;;;;;4974763;28;20035;-70
2024/03/09 02:02:24;;;;;;;24.75;14.60;;;3.40;94.20;;;;;;4974894;28;20039;-69
2024/03/09 02:04:52;;;;;;;15.77;10.38;;;3.40;94.20;;;;;;4974712;28;20050;-70
2024/03/09 02:07:19;;;;;;;21.27;12.50;;;3.40;94.40;;;;;;4974787;28;20118;-70
2024/03/09 02:09:48;;;;;;;20.65;11.73;;;3.40;94.40;;;;;;4972929;28;20051;-70
2024/03/09 02:12:17;;;;;;;25.73;17.00;;;3.40;94.50;;;;;;4989487;28;20138;-70
2024/03/09 02:14:44;;;;;;;21.85;12.98;;;3.30;94.50;;;;;;4989612;28;20102;-70
2024/03/09 02:17:12;;;;;;;17.77;11.57;;;3.30;94.50;;;;;;4974727;28;20042;-70
2024/03/09 02:19:40;;;;;;;21.63;11.30;;;3.30;94.50;;;;;;4974403;28;20043;-70
2024/03/09 02:22:13;;;;;;;21.73;14.85;;;3.30;94.70;;;;;;4973303;28;20492;-70
2024/03/09 02:24:45;;;;;;;18.15;12.82;;;3.30;94.80;;;;;;4989466;28;20070;-70
2024/03/09 02:27:12;;;;;;;24.13;15.52;;;3.30;94.80;;;;;;5005394;28;20129;-69
2024/03/09 02:29:39;;;;;;;22.25;12.48;;;3.30;94.90;;;;;;4973113;28;20038;-70
2024/03/09 02:32:07;;;;;;;21.92;13.20;;;3.30;94.90;;;;;;4988794;28;20050;-70
2024/03/09 02:34:34;;;;;;;26.40;16.25;;;3.30;94.80;;;;;;4989115;28;20043;-70
2024/03/09 02:37:02;;;;;;;22.75;13.15;;;3.20;94.90;;;;;;5005273;28;20078;-70
2024/03/09 02:39:30;;;;;;;21.08;13.13;;;3.20;94.90;;;;;;4974188;28;20093;-70
2024/03/09 02:41:58;;;;;;;21.55;12.48;;;3.20;95.00;;;;;;4988646;28;20122;-70
2024/03/09 02:44:26;;;;;;;23.27;14.07;;;3.20;95.10;;;;;;4974138;28;20047;-70
2024/03/09 02:46:54;;;;;;;17.83;10.80;;;3.10;95.00;;;;;;4973001;28;20051;-70
2024/03/09 02:49:21;;;;;;;25.45;15.80;;;3.00;95.10;;;;;;4972910;28;20057;-70
2024/03/09 02:51:48;;;;;;;19.95;12.30;;;3.00;95.20;;;;;;4988840;28;20055;-70
2024/03/09 02:54:15;;;;;;;23.60;15.45;;;3.00;95.30;;;;;;4988681;28;20043;-70
2024/03/09 02:56:43;;;;;;;19.80;13.60;;;3.00;95.30;;;;;;4974023;28;20506;-70
2024/03/09 02:59:10;;;;;;;24.58;12.32;;;3.00;95.40;;;;;;4974048;28;20043;-69
2024/03/09 03:01:37;;;;;;;16.58;10.48;;;2.90;95.40;;;;;;4989002;28;20093;-70
2024/03/09 03:04:04;;;;;;;28.05;15.52;;;3.00;95.50;;;;;;4988474;28;20089;-70
2024/03/09 03:06:32;;;;;;;21.70;13.80;;;2.90;95.60;;;;;;4988741;28;20070;-70
2024/03/09 03:09:11;;;;;;;24.83;14.00;;;2.90;95.50;;;;;;4988664;28;20504;-70
2024/03/09 03:11:40;;;;;;;19.73;12.85;;;2.90;95.50;;;;;;4988614;28;20065;-69
2024/03/09 03:14:09;;;;;;;22.33;15.40;;;2.80;95.60;;;;;;4988272;28;20050;-70
2024/03/09 03:16:36;;;;;;;20.30;13.63;;;2.80;96.00;;;;;;4973711;28;20489;-70
2024/03/09 03:19:06;;;;;;;27.42;15.93;;;2.80;95.90;;;;;;4973410;28;20493;-70
2024/03/09 03:21:35;;;;;;;20.20;14.63;;;2.70;96.30;;;;;;5004550;28;20130;-70
2024/03/09 03:24:03;;;;;;;20.52;13.98;;;2.70;96.20;;;;;;4972462;28;20042;-70
2024/03/09 03:26:30;;;;;;;16.42;10.98;;;2.70;96.70;;;;;;4988520;28;20541;-70
2024/03/09 03:29:01;;;;;;;25.15;14.63;;;2.70;96.90;;;;;;4973556;28;20066;-70
2024/03/09 03:31:29;;;;;;;26.52;16.00;;;2.60;97.30;;;;;;4988221;28;20055;-69
2024/03/09 03:33:56;;;;;;;21.90;12.82;;;2.70;97.20;;;;;;4988345;28;20042;-70
2024/03/09 03:36:24;;;;;;;21.38;14.15;;;2.70;97.10;;;;;;4972055;28;20408;-70
2024/03/09 03:38:51;;;;;;;26.25;14.27;;;2.60;97.20;;;;;;4971722;28;20035;-70
2024/03/09 03:41:22;;;;;;;22.17;14.10;;;2.60;97.30;;;;;;4968338;28;20061;-70
2024/03/09 03:43:50;;;;;;;21.42;13.10;;;2.60;97.70;;;;;;5004194;28;20053;-70
2024/03/09 03:46:18;;;;;;;21.20;13.40;;;2.60;97.40;;;;;;4972244;28;20589;-70
2024/03/09 03:48:45;;;;;;;20.00;12.30;;;2.60;97.50;;;;;;4973454;28;20054;-70
2024/03/09 03:51:13;;;;;;;21.17;12.70;;;2.60;97.80;;;;;;4973113;28;20511;-70
2024/03/09 03:53:41;;;;;;;22.45;14.57;;;2.60;97.80;;;;;;4973522;28;20049;-70
2024/03/09 03:56:09;;;;;;;25.73;14.30;;;2.60;97.90;;;;;;4973159;28;20543;-70
2024/03/09 03:58:37;;;;;;;28.98;16.92;;;2.60;97.90;;;;;;4988161;28;20142;-70
2024/03/09 04:01:05;;;;;;;23.63;14.93;;;2.60;97.80;;;;;;4986966;28;20489;-69
2024/03/09 04:03:33;;;;;;;29.20;16.95;;;2.50;98.00;;;;;;4971916;28;20047;-70
2024/03/09 04:06:02;;;;;;;22.95;14.73;;;2.50;98.30;;;;;;4986529;28;20047;-70
2024/03/09 04:08:29;;;;;;;21.95;13.38;;;2.50;98.20;;;;;;5003889;28;20046;-70
2024/03/09 04:10:57;;;;;;;19.58;11.43;;;2.50;98.40;;;;;;5004552;28;20043;-69
2024/03/09 04:13:24;;;;;;;21.70;13.10;;;2.40;98.50;;;;;;4987909;28;20105;-69
2024/03/09 04:15:52;;;;;;;23.52;12.85;;;2.40;98.50;;;;;;5004078;28;20058;-69
2024/03/09 04:18:21;;;;;;;29.45;17.70;;;2.40;98.90;;;;;;4987869;28;20043;-70
2024/03/09 04:20:49;;;;;;;18.08;14.23;;;2.30;98.80;;;;;;4973169;28;20403;-69
2024/03/09 04:23:16;;;;;;;28.27;17.35;;;2.30;99.20;;;;;;5004237;28;20488;-69
2024/03/09 04:25:46;;;;;;;26.10;16.98;;;2.30;99.20;;;;;;4973102;28;20133;-69
2024/03/09 04:28:20;;;;;;;28.30;16.65;;;2.30;99.20;;;;;;4987747;28;20053;-69
2024/03/09 04:30:49;;;;;;;27.02;16.17;;;2.30;99.20;;;;;;4973084;28;20043;-69
2024/03/09 04:33:18;;;;;;;28.42;19.85;;;2.30;99.10;;;;;;4973547;28;20439;-69
2024/03/09 04:35:49;;;;;;;27.05;15.55;;;2.20;99.00;;;;;;4976508;28;20077;-69
2024/03/09 04:38:16;;;;;;;31.52;17.88;;;2.20;98.90;;;;;;4991197;28;20125;-69
2024/03/09 04:40:46;;;;;;;29.83;18.27;;;2.10;99.10;;;;;;4991320;28;20050;-69
2024/03/09 04:43:13;;;;;;;25.40;15.55;;;2.10;99.40;;;;;;4976487;28;20054;-70
2024/03/09 04:45:41;;;;;;;27.58;16.55;;;2.10;99.80;;;;;;5007606;28;20047;-70
2024/03/09 04:48:13;;;;;;;24.25;15.18;;;2.10;99.60;;;;;;4991144;28;20069;-70
2024/03/09 04:50:46;;;;;;;28.95;17.10;;;2.10;99.80;;;;;;4976317;28;20050;-70
2024/03/09 04:53:13;;;;;;;23.40;11.93;;;2.10;99.90;;;;;;4976224;28;20046;-70
2024/03/09 04:55:47;;;;;;;27.83;16.17;;;2.10;99.90;;;;;;5007475;28;20042;-70
2024/03/09 04:58:16;;;;;;;28.38;21.50;;;2.00;99.90;;;;;;4976301;28;20441;-69
2024/03/09 05:00:44;;;;;;;23.15;12.75;;;2.00;99.90;;;;;;4976112;28;20039;-69
2024/03/09 05:03:17;;;;;;;23.25;17.25;;;2.00;99.90;;;;;;4976082;28;20374;-70
2024/03/09 05:05:44;;;;;;;31.00;18.20;;;2.00;99.90;;;;;;4976090;28;20480;-69
2024/03/09 05:08:11;;;;;;;31.85;18.00;;;2.00;99.90;;;;;;4990777;28;20049;-70
2024/03/09 05:10:39;;;;;;;24.70;14.52;;;2.00;99.90;;;;;;4990554;28;20078;-70
2024/03/09 05:13:06;;;;;;;23.00;13.68;;;2.00;99.90;;;;;;5007253;28;20054;-70
2024/03/09 05:15:35;;;;;;;28.88;18.05;;;2.00;99.90;;;;;;4975593;28;20070;-70
2024/03/09 05:18:07;;;;;;;31.40;20.15;;;1.90;99.90;;;;;;4975685;28;20042;-69
2024/03/09 05:20:35;;;;;;;24.70;15.50;;;1.90;99.90;;;;;;4990491;28;20055;-69
2024/03/09 05:23:03;;;;;;;22.80;13.70;;;1.90;99.90;;;;;;4975885;28;20046;-70
2024/03/09 05:25:31;;;;;;;22.35;16.00;;;1.90;99.90;;;;;;4974166;28;20039;-70
2024/03/09 05:27:59;;;;;;;30.95;18.98;;;2.00;99.90;;;;;;4990336;28;20057;-69
2024/03/09 05:30:29;;;;;;;25.23;16.20;;;2.00;99.90;;;;;;5006512;28;20405;-70
2024/03/09 05:32:57;;;;;;;25.42;15.52;;;2.00;99.90;;;;;;4975579;28;20050;-70
2024/03/09 05:35:28;;;;;;;31.60;19.55;;;2.00;99.90;;;;;;4989924;28;20587;-69
2024/03/09 05:37:58;;;;;;;30.35;17.65;;;2.00;99.90;;;;;;4975456;28;20046;-70
2024/03/09 05:40:26;;;;;;;;;;;2.00;99.90;;;;;;4975591;28;20142;-70
2024/03/09 05:42:55;;;;;;;35.47;20.70;;;1.90;99.90;;;;;;4975126;28;19922;-70
2024/03/09 05:45:23;;;;;;;27.15;16.65;;;1.90;99.90;;;;;;4988991;28;20050;-69
2024/03/09 05:47:57;;;;;;;29.83;21.98;;;1.90;99.90;;;;;;4990072;28;20400;-69
2024/03/09 05:50:29;;;;;;;33.55;20.20;;;1.90;99.90;;;;;;5006073;28;20109;-69
2024/03/09 05:52:59;;;;;;;25.35;15.60;;;1.90;99.90;;;;;;4989997;28;20499;-70
2024/03/09 05:55:27;;;;;;;25.23;15.38;;;1.80;99.90;;;;;;5005966;28;20076;-69
2024/03/09 05:57:55;;;;;;;26.25;16.48;;;1.80;99.90;;;;;;5006414;28;20094;-70
2024/03/09 06:00:28;;;;;;;26.10;16.40;;;1.80;99.90;;;;;;4988953;28;20050;-69
2024/03/09 06:02:57;;;;;;;38.42;22.00;;;1.80;99.90;;;;;;4988567;28;20125;-70
2024/03/09 06:05:28;;;;;;;26.75;16.30;;;1.80;99.90;;;;;;4974120;28;20125;-69
2024/03/09 06:07:55;;;;;;;37.28;22.52;;;1.80;99.90;;;;;;4973380;28;20054;-69
2024/03/09 06:10:24;;;;;;;31.70;22.67;;;1.80;99.90;;;;;;5005971;28;20400;-69
2024/03/09 06:12:52;;;;;;;32.40;19.45;;;1.80;99.90;;;;;;4974603;28;20101;-70
2024/03/09 06:15:23;;;;;;;35.30;20.92;;;1.80;99.90;;;;;;4974650;28;20042;-70
2024/03/09 06:17:58;;;;;;;31.77;16.73;;;1.90;99.90;;;;;;4974365;28;20062;-70
2024/03/09 06:20:29;;;;;;;34.83;20.73;;;1.90;99.90;;;;;;4974644;28;20055;-69
2024/03/09 06:22:57;;;;;;;29.88;19.15;;;1.90;99.90;;;;;;4974756;28;20042;-70
2024/03/09 06:25:29;;;;;;;28.02;19.35;;;1.90;99.90;;;;;;4974356;28;20551;-70
2024/03/09 06:27:59;;;;;;;38.45;22.52;;;1.90;99.90;;;;;;4973195;28;20059;-70
2024/03/09 06:30:27;;;;;;;31.95;22.38;;;2.00;99.90;;;;;;4974308;28;20078;-70
2024/03/09 06:32:57;;;;;;;31.83;20.98;;;2.00;99.90;;;;;;4974206;28;20051;-69
2024/03/09 06:35:27;;;;;;;31.77;17.70;;;2.00;99.90;;;;;;4988885;28;20078;-70
2024/03/09 06:38:04;;;;;;;33.20;23.98;;;2.00;99.90;;;;;;4972689;28;20412;-69
2024/03/09 06:40:33;;;;;;;37.33;21.27;;;2.00;99.90;;;;;;4972919;28;20113;-70
2024/03/09 06:43:06;;;;;;;32.67;19.27;;;2.10;99.90;;;;;;5005313;28;20046;-70
2024/03/09 06:45:34;;;;;;;44.95;20.98;;;2.10;99.90;;;;;;4973749;28;20051;-69
2024/03/09 06:48:03;;;;;;;42.63;26.23;;;2.10;99.90;;;;;;4974041;28;20489;-70
2024/03/09 06:50:31;;;;;;;43.95;23.90;;;2.20;99.90;;;;;;4974045;28;20050;-70
2024/03/09 06:52:59;;;;;;;39.00;22.58;;;2.20;99.90;;;;;;4988964;28;20055;-69
2024/03/09 06:55:29;;;;;;;40.92;23.67;;;2.20;99.90;;;;;;4972612;28;20042;-69
2024/03/09 06:58:01;;;;;;;37.83;21.80;;;2.30;99.90;;;;;;5004558;28;20042;-69
2024/03/09 07:00:30;;;;;;;32.03;15.77;;;2.30;99.90;;;;;;4972589;28;20485;-70
2024/03/09 07:03:00;;;;;;;38.05;18.92;;;2.40;99.90;;;;;;4973711;28;20047;-70
2024/03/09 07:05:30;;;;;;;30.88;19.27;;;2.40;99.90;;;;;;5005067;28;20046;-70
2024/03/09 07:08:01;;;;;;;30.30;19.83;;;2.50;99.90;;;;;;4972330;28;20035;-70
2024/03/09 07:10:29;;;;;;;38.60;24.05;;;2.60;99.90;;;;;;4972517;28;20043;-70
2024/03/09 07:12:57;;;;;;;33.13;20.33;;;2.70;99.90;;;;;;4973414;28;20061;-69
2024/03/09 07:15:29;;;;;;;40.85;23.52;;;2.80;99.90;;;;;;4973681;28;20043;-69
2024/03/09 07:17:56;;;;;;;36.50;20.23;;;2.80;99.90;;;;;;4973447;28;20078;-70
2024/03/09 07:20:27;;;;;;;39.55;24.02;;;3.00;99.90;;;;;;4973564;28;20046;-70
2024/03/09 07:22:54;;;;;;;33.30;22.23;;;3.10;99.90;;;;;;4973410;28;20039;-70
2024/03/09 07:25:25;;;;;;;38.70;23.92;;;3.40;99.90;;;;;;4973451;28;20049;-70
2024/03/09 07:27:54;;;;;;;33.85;21.17;;;3.80;99.90;;;;;;4972444;28;20039;-70
2024/03/09 07:30:23;;;;;;;31.73;20.52;;;4.30;99.90;;;;;;4973515;28;20042;-70
2024/03/09 07:32:50;;;;;;;40.13;22.52;;;4.80;99.90;;;;;;4972167;28;20057;-70
2024/03/09 07:35:18;;;;;;;33.72;21.45;;;5.20;99.90;;;;;;4988308;28;20047;-70
2024/03/09 07:37:55;;;;;;;30.17;20.27;;;5.50;99.90;;;;;;4973163;28;20089;-69
2024/03/09 07:40:24;;;;;;;36.92;21.55;;;5.80;99.90;;;;;;5004616;28;20073;-70
2024/03/09 07:42:53;;;;;;;36.15;21.67;;;6.10;99.70;;;;;;4971759;28;20125;-71
2024/03/09 07:45:25;;;;;;;28.85;17.02;;;6.60;99.60;;;;;;4973429;28;20051;-70
2024/03/09 07:47:52;;;;;;;33.58;22.52;;;7.10;98.70;;;;;;4971854;28;20046;-70
2024/03/09 07:50:21;;;;;;;36.42;21.52;;;7.40;98.10;;;;;;4973269;28;20041;-70
2024/03/09 07:52:52;;;;;;;32.10;19.45;;;7.50;97.20;;;;;;4973181;28;20070;-70
2024/03/09 07:55:24;;;;;;;20.63;15.35;;;7.80;96.60;;;;;;5004349;28;20392;-70
2024/03/09 07:57:55;;;;;;;33.53;21.48;;;7.90;94.30;;;;;;4972141;28;20448;-70
2024/03/09 08:00:33;;;;;;;35.45;21.40;;;8.10;94.20;;;;;;4972289;28;20057;-70
2024/03/09 08:03:02;;;;;;;31.20;18.50;;;8.30;94.90;;;;;;4973096;28;20043;-70
2024/03/09 08:05:29;;;;;;;34.95;24.05;;;8.60;93.60;;;;;;4973349;28;20078;-70
2024/03/09 08:08:02;;;;;;;35.42;21.35;;;8.70;94.00;;;;;;4988403;28;20054;-70
2024/03/09 08:10:31;;;;;;;33.80;20.23;;;8.80;92.70;;;;;;4977066;28;20046;-70
2024/03/09 08:12:59;;;;;;;32.20;21.27;;;9.00;93.50;;;;;;4977002;28;20143;-70
2024/03/09 08:15:28;;;;;;;31.80;22.15;;;9.30;92.70;;;;;;4991656;28;20043;-70
2024/03/09 08:17:56;;;;;;;33.08;20.25;;;9.20;91.40;;;;;;4976768;28;20134;-71
2024/03/09 08:20:24;;;;;;;24.50;17.60;;;9.30;91.20;;;;;;4976880;28;20126;-70
2024/03/09 08:22:51;;;;;;;32.83;23.95;;;9.40;90.20;;;;;;5007870;28;20493;-70
2024/03/09 08:25:18;;;;;;;27.52;20.42;;;9.40;91.20;;;;;;4976703;28;20566;-70
2024/03/09 08:27:47;;;;;;;25.02;19.60;;;9.70;90.20;;;;;;4976585;28;20042;-70
2024/03/09 08:30:16;;;;;;;31.48;21.63;;;9.90;89.30;;;;;;4975539;28;20062;-70
2024/03/09 08:32:53;;;;;;;33.78;22.42;;;9.90;89.80;;;;;;4975434;28;20049;-70
2024/03/09 08:35:21;;;;;;;27.65;18.27;;;10.10;89.30;;;;;;4976506;28;20488;-70
2024/03/09 08:37:50;;;;;;;24.50;17.63;;;10.00;87.50;;;;;;4991327;28;20399;-70
2024/03/09 08:40:19;;;;;;;27.58;17.95;;;10.10;88.80;;;;;;4976340;28;20051;-70
2024/03/09 08:42:50;;;;;;;28.65;19.42;;;10.20;87.90;;;;;;4974154;28;20057;-70
2024/03/09 08:45:27;;;;;;;27.70;20.13;;;10.60;88.00;;;;;;4975265;28;20061;-70
2024/03/09 08:47:56;;;;;;;29.20;19.98;;;10.40;85.70;;;;;;4975166;28;20061;-70
2024/03/09 08:50:27;;;;;;;26.40;16.90;;;10.50;86.90;;;;;;4975109;28;20043;-70
2024/03/09 08:52:55;;;;;;;29.25;18.00;;;10.80;86.80;;;;;;4991110;28;20057;-70
2024/03/09 08:55:23;;;;;;;29.63;19.98;;;10.90;85.30;;;;;;4976188;28;20043;-70
2024/03/09 08:57:50;;;;;;;30.10;20.85;;;11.00;85.50;;;;;;4976156;28;20054;-70
2024/03/09 09:00:24;;;;;;;31.30;20.98;;;11.40;85.40;;;;;;4974780;28;20089;-70
2024/03/09 09:02:53;;;;;;;24.77;18.15;;;11.70;84.60;;;;;;4974695;28;20039;-70
2024/03/09 09:05:21;;;;;;;29.35;20.08;;;11.80;83.00;;;;;;4974654;28;20496;-70
2024/03/09 09:07:48;;;;;;;23.05;15.75;;;11.90;83.00;;;;;;4975908;28;20101;-70
2024/03/09 09:10:21;;;;;;;22.00;18.20;;;12.10;82.30;;;;;;4975758;28;20043;-70
2024/03/09 09:12:51;;;;;;;24.15;20.30;;;12.10;80.50;;;;;;4974270;28;20081;-70
2024/03/09 09:15:19;;;;;;;25.63;22.48;;;12.30;80.10;;;;;;4975533;28;20452;-70
2024/03/09 09:17:46;;;;;;;24.55;21.20;;;12.20;79.50;;;;;;4974737;28;20396;-70
2024/03/09 09:20:15;;;;;;;24.85;14.38;;;12.30;80.00;;;;;;4975306;28;20085;-70
2024/03/09 09:22:47;;;;;;;31.17;24.80;;;12.20;80.40;;;;;;4975636;28;20122;-70
2024/03/09 09:25:14;;;;;;;28.20;19.20;;;11.70;79.30;;;;;;4974330;28;20043;-70
2024/03/09 09:27:43;;;;;;;23.75;16.98;;;11.10;81.30;;;;;;4974484;28;20047;-70
2024/03/09 09:30:11;;;;;;;25.75;19.42;;;10.50;82.60;;;;;;4974011;28;20500;-70
2024/03/09 09:32:40;;;;;;;21.92;16.05;;;10.20;83.50;;;;;;4975345;28;20056;-70
2024/03/09 09:35:08;;;;;;;32.63;22.02;;;10.60;83.60;;;;;;5006145;28;20489;-70
2024/03/09 09:37:35;;;;;;;23.02;20.58;;;11.20;83.10;;;;;;4974196;28;20400;-70
2024/03/09 09:40:03;;;;;;;24.85;17.58;;;11.40;81.00;;;;;;4975217;28;20039;-70
2024/03/09 09:42:33;;;;;;;23.83;17.10;;;11.50;81.20;;;;;;4973992;28;20054;-70
2024/03/09 09:45:00;;;;;;;19.55;14.27;;;11.80;80.80;;;;;;4990070;28;20059;-70
2024/03/09 09:47:30;;;;;;;29.17;19.80;;;11.90;80.90;;;;;;4975223;28;20050;-71
2024/03/09 09:49:57;;;;;;;27.88;19.27;;;12.20;80.80;;;;;;4974011;28;20043;-70
2024/03/09 09:52:25;;;;;;;27.17;18.08;;;12.60;79.60;;;;;;4973766;28;20054;-70
2024/03/09 09:54:56;;;;;;;25.85;19.30;;;12.90;79.20;;;;;;4975006;28;20111;-71
2024/03/09 09:57:28;;;;;;;24.83;16.10;;;13.20;78.40;;;;;;4973477;28;20050;-70
2024/03/09 09:59:55;;;;;;;25.77;17.75;;;13.30;77.90;;;;;;4974098;28;20097;-70
2024/03/09 10:02:22;;;;;;;24.00;17.90;;;13.40;77.80;;;;;;4972718;28;20049;-70
2024/03/09 10:04:50;;;;;;;20.10;13.80;;;13.30;77.00;;;;;;4972282;28;20072;-70
2024/03/09 10:07:18;;;;;;;26.02;17.23;;;13.10;76.60;;;;;;4973011;28;20047;-70
2024/03/09 10:09:47;;;;;;;16.50;14.70;;;12.80;76.60;;;;;;4973462;28;20456;-70
2024/03/09 10:12:21;;;;;;;22.70;17.42;;;12.40;77.70;;;;;;4973180;28;20108;-70
2024/03/09 10:14:49;;;;;;;25.40;17.83;;;12.50;78.10;;;;;;5004737;28;20042;-70
2024/03/09 10:17:19;;;;;;;25.25;19.80;;;12.80;77.90;;;;;;4973399;28;20494;-71
2024/03/09 10:19:49;;;;;;;23.83;15.95;;;13.00;76.90;;;;;;4974633;28;20072;-70
2024/03/09 10:22:16;;;;;;;23.73;15.48;;;13.00;75.90;;;;;;4989469;28;20047;-70
2024/03/09 10:24:53;;;;;;;23.20;16.25;;;13.00;76.40;;;;;;4989417;28;20488;-70
2024/03/09 10:27:26;;;;;;;24.27;19.55;;;13.10;76.20;;;;;;4974197;28;20506;-70
2024/03/09 10:30:10;;;;;;;27.27;20.33;;;13.00;76.00;;;;;;4974493;28;20047;-70
2024/03/09 10:32:41;;;;;;;22.95;15.77;;;13.10;75.90;;;;;;4988644;28;20046;-70
2024/03/09 10:35:09;;;;;;;;;;;13.30;76.10;;;;;;4989335;28;20082;-70
2024/03/09 10:37:41;;;;;;;25.15;15.90;;;13.60;75.20;;;;;;5005645;28;19925;-71
2024/03/09 10:40:12;;;;;;;23.38;17.40;;;14.00;74.90;;;;;;4974435;28;20039;-70
2024/03/09 10:42:47;;;;;;;22.88;16.50;;;14.30;74.00;;;;;;4987016;28;20066;-71
2024/03/09 10:45:16;;;;;;;26.27;18.58;;;14.50;74.10;;;;;;4972873;28;20042;-71
2024/03/09 10:47:53;;;;;;;26.75;17.33;;;14.70;72.70;;;;;;4974119;28;20047;-70
2024/03/09 10:50:26;;;;;;;24.65;18.25;;;15.00;73.40;;;;;;4988929;28;20070;-71
2024/03/09 10:53:10;;;;;;;18.23;13.23;;;15.20;72.80;;;;;;4988845;28;20055;-70
2024/03/09 10:56:17;;;;;;;20.17;15.95;;;15.10;71.70;;;;;;4973947;28;20043;-71
2024/03/09 10:58:46;;;;;;;29.95;25.13;;;15.00;71.60;;;;;;4973977;28;20047;-71
2024/03/09 11:01:17;;;;;;;21.67;16.77;;;14.50;71.70;;;;;;4988791;28;20047;-71
2024/03/09 11:03:50;;;;;;;25.88;19.58;;;14.40;72.70;;;;;;4974163;28;20039;-71
2024/03/09 11:06:18;;;;;;;27.25;21.67;;;14.30;72.40;;;;;;4988595;28;20101;-71
2024/03/09 11:08:53;;;;;;;20.75;17.63;;;13.80;73.00;;;;;;4972715;28;20464;-70
2024/03/09 11:11:23;;;;;;;27.90;21.20;;;13.70;73.50;;;;;;4988759;28;20058;-71
2024/03/09 11:13:50;;;;;;;28.05;19.30;;;13.30;73.90;;;;;;5004881;28;20039;-70
2024/03/09 11:16:20;;;;;;;24.90;19.63;;;13.10;75.40;;;;;;4972402;28;20042;-71
2024/03/09 11:18:58;;;;;;;23.65;18.25;;;12.80;75.20;;;;;;4973903;28;20463;-70
2024/03/09 11:21:29;;;;;;;23.33;15.55;;;12.70;75.80;;;;;;4988272;28;20046;-71
2024/03/09 11:23:59;;;;;;;22.55;17.13;;;12.70;76.00;;;;;;4973802;28;20057;-70
2024/03/09 11:26:27;;;;;;;29.05;16.92;;;12.70;75.80;;;;;;4988374;28;20077;-70
2024/03/09 11:28:58;;;;;;;26.85;20.13;;;12.50;76.10;;;;;;4973698;28;20050;-71
2024/03/09 11:31:28;;;;;;;18.42;12.65;;;12.80;76.00;;;;;;4972900;28;20061;-71
2024/03/09 11:34:05;;;;;;;26.38;22.05;;;13.00;75.20;;;;;;4973651;28;20055;-70
2024/03/09 11:36:45;;;;;;;25.65;16.75;;;13.20;75.50;;;;;;4973327;28;20049;-70
2024/03/09 11:39:13;;;;;;;23.85;15.75;;;13.30;75.20;;;;;;4973564;28;20043;-71
2024/03/09 11:41:46;;;;;;;25.15;16.13;;;13.50;75.20;;;;;;4988124;28;20050;-71
2024/03/09 11:44:39;;;;;;;14.25;10.98;;;13.60;74.60;;;;;;4977516;28;20097;-70
2024/03/09 11:47:07;;;;;;;17.70;13.05;;;13.70;74.20;;;;;;4977562;28;20051;-71
2024/03/09 11:49:39;;;;;;;26.77;16.30;;;13.80;74.80;;;;;;4992063;28;20117;-70
2024/03/09 11:52:07;;;;;;;21.83;15.85;;;13.90;74.00;;;;;;4992217;28;20053;-71
2024/03/09 11:54:39;;;;;;;22.25;15.30;;;13.70;73.80;;;;;;4991940;28;20057;-70
2024/03/09 11:57:08;;;;;;;20.38;14.43;;;13.60;74.10;;;;;;4977244;28;20485;-71
2024/03/09 11:59:35;;;;;;;27.10;20.73;;;13.50;74.50;;;;;;4975813;28;20058;-70
2024/03/09 12:02:07;;;;;;;28.75;24.30;;;13.60;74.30;;;;;;4976078;28;20500;-70
2024/03/09 12:04:35;;;;;;;23.27;15.43;;;13.40;74.20;;;;;;4977252;28;20046;-70
2024/03/09 12:07:06;;;;;;;23.20;15.90;;;13.60;74.60;;;;;;4992034;28;20089;-71
2024/03/09 12:09:33;;;;;;;20.45;14.38;;;14.00;74.40;;;;;;4977176;28;20039;-71
2024/03/09 12:12:11;;;;;;;23.70;16.88;;;14.60;72.80;;;;;;4975915;28;20101;-70
2024/03/09 12:14:43;;;;;;;23.55;17.85;;;15.00;71.30;;;;;;4976872;28;20449;-71
2024/03/09 12:17:11;;;;;;;25.15;19.25;;;15.20;71.40;;;;;;4991973;28;20512;-71
2024/03/09 12:19:40;;;;;;;20.67;14.00;;;15.30;70.40;;;;;;4975513;28;20043;-70
2024/03/09 12:22:09;;;;;;;20.75;14.65;;;15.20;70.80;;;;;;4991724;28;20078;-71
2024/03/09 12:24:36;;;;;;;24.67;14.57;;;15.40;70.70;;;;;;4976717;28;20074;-71
2024/03/09 12:27:04;;;;;;;21.20;15.52;;;15.20;70.80;;;;;;4976787;28;20047;-70
2024/03/09 12:29:32;;;;;;;21.65;19.33;;;15.40;71.00;;;;;;4976421;28;20400;-71
2024/03/09 12:32:01;;;;;;;23.30;19.92;;;15.50;70.00;;;;;;4991535;28;20054;-71
2024/03/09 12:34:29;;;;;;;16.73;13.98;;;15.30;69.00;;;;;;4976603;28;20046;-71
2024/03/09 12:36:57;;;;;;;21.42;15.40;;;15.20;69.70;;;;;;4976258;28;20039;-70
2024/03/09 12:39:27;;;;;;;21.40;15.10;;;15.20;70.10;;;;;;4991451;28;20496;-70
2024/03/09 12:41:56;;;;;;;26.70;23.63;;;15.00;70.40;;;;;;4991148;28;20051;-71
2024/03/09 12:44:24;;;;;;;18.92;16.73;;;15.10;69.90;;;;;;4976399;28;20114;-71